Steeton, United Kingdom
Current Conditions -  °F | °C
As of 1:20 PM on Saturday 22 Nov 2014 (Local Time) from EGNM Reporting Station
Haze Haze  
Wind Chill: 11°   Ceiling: Unl
Heat Index: 11°   Visibility: 1.8mi
Dew Point: 11°   Wind: 3mph
Humidity: 100%   Direction: NA
Pressure: 29.83"   Gusts: NA
Location:  53.88°N, 1.95°W
Report Text: EGNM 221320Z VRB03KT 3000 BR SCT002 SCT012 11/11 Q1010
Loading
Personal Weather Stations






























Interactive Weather Map New forecast layout! Learn more

10-Day Weather Forecast

Advertisements
Track Severe Weather on mobile